createdAt,value
2018-01-19T00:00:46.535Z,0
2018-01-19T00:01:45.454Z,0
2018-01-19T00:02:47.456Z,0
2018-01-19T00:03:48.348Z,0
2018-01-19T00:04:46.749Z,0
2018-01-19T00:05:46.186Z,0
2018-01-19T00:06:46.559Z,0
2018-01-19T00:07:47.282Z,0
2018-01-19T00:08:47.383Z,0
2018-01-19T00:09:47.604Z,0
2018-01-19T00:10:48.138Z,0
2018-01-19T00:11:48.437Z,0
2018-01-19T00:12:48.975Z,0
2018-01-19T00:13:47.727Z,0
2018-01-19T00:14:49.022Z,0
2018-01-19T00:15:48.251Z,0
2018-01-19T00:16:48.466Z,0
2018-01-19T00:17:50.037Z,0
2018-01-19T00:18:49.772Z,0
2018-01-19T00:19:49.258Z,0
2018-01-19T00:20:49.117Z,0
2018-01-19T00:21:49.471Z,0
2018-01-19T00:22:49.957Z,0
2018-01-19T00:23:50.525Z,0
2018-01-19T00:24:49.811Z,0
2018-01-19T00:25:49.653Z,0
2018-01-19T00:26:50.022Z,0
2018-01-19T00:27:50.770Z,0
2018-01-19T00:28:51.207Z,0
2018-01-19T00:29:52.691Z,0
2018-01-19T00:30:51.095Z,0
2018-01-19T00:31:52.241Z,0
2018-01-19T00:32:51.209Z,0
2018-01-19T00:33:50.576Z,0
2018-01-19T00:34:51.146Z,0
2018-01-19T00:35:52.025Z,0
2018-01-19T00:36:52.108Z,0
2018-01-19T00:37:51.193Z,0
2018-01-19T00:38:51.536Z,0
2018-01-19T00:39:51.302Z,0
2018-01-19T00:40:51.194Z,0
2018-01-19T00:41:51.456Z,0
2018-01-19T00:42:52.505Z,0
2018-01-19T00:43:51.393Z,0
2018-01-19T00:44:51.302Z,0
2018-01-19T00:45:51.341Z,0
2018-01-19T00:46:51.261Z,0
2018-01-19T00:47:51.302Z,0
2018-01-19T00:48:51.856Z,0
2018-01-19T00:49:51.648Z,0
2018-01-19T00:50:50.969Z,0
2018-01-19T00:51:51.487Z,0
2018-01-19T00:52:50.975Z,0
2018-01-19T00:53:51.243Z,0
2018-01-19T00:54:51.502Z,0
2018-01-19T00:55:51.438Z,0
2018-01-19T00:56:51.542Z,0
2018-01-19T00:57:51.682Z,0
2018-01-19T00:58:51.326Z,0
2018-01-19T00:59:52.070Z,0
2018-01-19T01:00:52.181Z,0
2018-01-19T01:01:52.067Z,0
2018-01-19T01:02:52.219Z,0
2018-01-19T01:03:53.456Z,0
2018-01-19T01:04:52.352Z,0
2018-01-19T01:05:52.225Z,0
2018-01-19T01:06:52.520Z,0
2018-01-19T01:07:53.343Z,0
2018-01-19T01:08:53.440Z,0
2018-01-19T01:09:52.864Z,0
2018-01-19T01:10:53.288Z,0
2018-01-19T01:11:53.750Z,0
2018-01-19T01:12:54.690Z,0
2018-01-19T01:13:53.498Z,0
2018-01-19T01:14:53.286Z,0
2018-01-19T01:15:54.356Z,0
2018-01-19T01:16:54.111Z,0
2018-01-19T01:17:54.042Z,0
2018-01-19T01:18:57.000Z,0
2018-01-19T01:19:54.958Z,0
2018-01-19T01:20:55.387Z,0
2018-01-19T01:21:55.923Z,0
2018-01-19T01:22:55.981Z,0
2018-01-19T01:23:55.694Z,0
2018-01-19T01:24:57.593Z,0
2018-01-19T01:25:56.257Z,0
2018-01-19T01:26:58.493Z,0
2018-01-19T01:27:57.769Z,0
2018-01-19T01:28:57.210Z,0
2018-01-19T01:29:57.651Z,0
2018-01-19T01:30:58.555Z,0
2018-01-19T01:31:58.951Z,0
2018-01-19T01:32:57.949Z,0
2018-01-19T01:33:58.621Z,0
2018-01-19T01:34:59.504Z,0
2018-01-19T01:36:00.377Z,0
2018-01-19T01:37:00.370Z,0
2018-01-19T01:38:00.750Z,0
2018-01-19T01:38:58.097Z,0
2018-01-19T01:39:58.740Z,0
2018-01-19T01:40:59.511Z,0
2018-01-19T01:41:58.101Z,0
2018-01-19T01:43:00.277Z,0
2018-01-19T01:44:01.036Z,0
2018-01-19T01:45:00.951Z,0
2018-01-19T01:46:00.054Z,0
2018-01-19T01:47:00.574Z,0
2018-01-19T01:48:00.611Z,0
2018-01-19T01:48:59.580Z,0
2018-01-19T01:50:01.297Z,0
2018-01-19T01:51:00.645Z,0
2018-01-19T01:52:01.161Z,0
2018-01-19T01:52:59.373Z,0
2018-01-19T01:54:01.067Z,0
2018-01-19T01:55:00.742Z,0
2018-01-19T01:56:01.375Z,0
2018-01-19T01:57:01.438Z,0
2018-01-19T01:58:00.235Z,0
2018-01-19T01:59:00.811Z,0
2018-01-19T02:00:00.103Z,0
2018-01-19T02:01:01.389Z,0
2018-01-19T02:02:01.326Z,0
2018-01-19T02:02:59.348Z,0
2018-01-19T02:04:01.718Z,0
2018-01-19T02:05:01.016Z,0
2018-01-19T02:06:00.841Z,0
2018-01-19T02:07:00.723Z,0
2018-01-19T02:08:00.446Z,0
2018-01-19T02:08:59.214Z,0
2018-01-19T02:10:01.874Z,0
2018-01-19T02:11:01.464Z,0
2018-01-19T02:12:02.301Z,0
2018-01-19T02:13:00.268Z,0
2018-01-19T02:14:01.074Z,0
2018-01-19T02:15:02.252Z,0
2018-01-19T02:16:02.264Z,0
2018-01-19T02:17:01.644Z,0
2018-01-19T02:18:02.676Z,0
2018-01-19T02:19:02.498Z,0
2018-01-19T02:20:01.069Z,0
2018-01-19T02:21:01.794Z,0
2018-01-19T02:22:01.385Z,0
2018-01-19T02:23:01.395Z,0
2018-01-19T02:24:02.564Z,0
2018-01-19T02:25:02.200Z,0
2018-01-19T02:26:00.419Z,0
2018-01-19T02:27:00.423Z,0
2018-01-19T02:28:00.022Z,0
2018-01-19T02:29:00.633Z,0
2018-01-19T02:30:01.640Z,0
2018-01-19T02:31:00.895Z,0
2018-01-19T02:32:00.937Z,0
2018-01-19T02:33:00.964Z,0
2018-01-19T02:34:00.895Z,0
2018-01-19T02:35:00.722Z,0
2018-01-19T02:36:00.662Z,0
2018-01-19T02:37:00.684Z,0
2018-01-19T02:38:00.895Z,0
2018-01-19T02:39:01.309Z,0
2018-01-19T02:40:01.215Z,0
2018-01-19T02:41:02.629Z,0
2018-01-19T02:42:00.913Z,0
2018-01-19T02:43:02.816Z,0
2018-01-19T02:44:01.386Z,0
2018-01-19T02:45:01.502Z,0
2018-01-19T02:46:02.309Z,0
2018-01-19T02:47:01.548Z,0
2018-01-19T02:48:01.780Z,0
2018-01-19T02:49:01.718Z,0
2018-01-19T02:50:03.055Z,0
2018-01-19T02:51:02.621Z,0
2018-01-19T02:52:02.367Z,0
2018-01-19T02:53:02.149Z,0
2018-01-19T02:54:02.638Z,0
2018-01-19T02:55:04.250Z,0
2018-01-19T02:56:03.025Z,0
2018-01-19T02:57:02.899Z,0
2018-01-19T02:58:03.065Z,0
2018-01-19T02:59:03.805Z,0
2018-01-19T03:00:18.475Z,0
2018-01-19T03:01:03.662Z,0
2018-01-19T03:02:05.792Z,0
2018-01-19T03:03:05.126Z,0
2018-01-19T03:04:05.716Z,0
2018-01-19T03:05:05.228Z,0
2018-01-19T03:06:05.642Z,0
2018-01-19T03:07:05.947Z,0
2018-01-19T03:08:06.121Z,0
2018-01-19T03:09:06.347Z,0
2018-01-19T03:10:05.355Z,0
2018-01-19T03:11:06.045Z,0
2018-01-19T03:12:06.398Z,0
2018-01-19T03:13:04.280Z,0
2018-01-19T03:14:03.896Z,0
2018-01-19T03:15:05.990Z,0
2018-01-19T03:16:05.200Z,0
2018-01-19T03:17:06.415Z,0
2018-01-19T03:18:06.046Z,0
2018-01-19T03:19:06.226Z,0
2018-01-19T03:20:04.569Z,0
2018-01-19T03:21:04.567Z,0
2018-01-19T03:22:04.587Z,0
2018-01-19T03:23:04.604Z,0
2018-01-19T03:24:04.908Z,0
2018-01-19T03:25:04.501Z,0
2018-01-19T03:26:04.928Z,0
2018-01-19T03:27:04.598Z,0
2018-01-19T03:28:04.912Z,0
2018-01-19T03:29:05.383Z,0
2018-01-19T03:30:05.049Z,0
2018-01-19T03:31:05.812Z,0
2018-01-19T03:32:05.962Z,0
2018-01-19T03:33:06.136Z,0
2018-01-19T03:34:05.242Z,0
2018-01-19T03:35:06.250Z,0
2018-01-19T03:36:05.915Z,0
2018-01-19T03:37:06.421Z,0
2018-01-19T03:38:06.407Z,0
2018-01-19T03:39:06.715Z,0
2018-01-19T03:40:06.922Z,0
2018-01-19T03:41:06.240Z,0
2018-01-19T03:42:06.710Z,0
2018-01-19T03:43:06.310Z,0
2018-01-19T03:44:06.109Z,0
2018-01-19T03:45:06.920Z,0
2018-01-19T03:46:06.544Z,0
2018-01-19T03:47:06.815Z,0
2018-01-19T03:48:06.791Z,0
2018-01-19T03:49:06.557Z,0
2018-01-19T03:50:07.087Z,0
2018-01-19T03:51:07.688Z,0
2018-01-19T03:52:08.314Z,0
2018-01-19T03:53:07.197Z,0
2018-01-19T03:54:07.523Z,0
2018-01-19T03:55:08.340Z,0
2018-01-19T03:56:07.282Z,0
2018-01-19T03:57:07.512Z,0
2018-01-19T03:58:08.091Z,0
2018-01-19T03:59:08.013Z,0
2018-01-19T04:00:22.508Z,0
2018-01-19T04:01:06.926Z,0
2018-01-19T04:02:07.346Z,0
2018-01-19T04:03:08.455Z,0
2018-01-19T04:04:07.739Z,0
2018-01-19T04:05:08.108Z,0
2018-01-19T04:06:07.698Z,0
2018-01-19T04:07:08.116Z,0
2018-01-19T04:08:08.030Z,0
2018-01-19T04:09:07.874Z,0
2018-01-19T04:10:08.748Z,0
2018-01-19T04:11:07.792Z,0
2018-01-19T04:12:07.465Z,0
2018-01-19T04:13:07.610Z,0
2018-01-19T04:14:07.718Z,0
2018-01-19T04:15:08.496Z,0
2018-01-19T04:16:07.630Z,0
2018-01-19T04:17:08.417Z,0
2018-01-19T04:18:08.745Z,0
2018-01-19T04:19:08.680Z,0
2018-01-19T04:20:08.165Z,0
2018-01-19T04:21:08.103Z,0
2018-01-19T04:22:08.806Z,0
2018-01-19T04:23:08.739Z,0
2018-01-19T04:24:08.461Z,0
2018-01-19T04:25:23.853Z,0
2018-01-19T04:26:23.892Z,0
2018-01-19T04:27:23.831Z,0
2018-01-19T04:28:23.621Z,0
2018-01-19T04:29:23.548Z,0
2018-01-19T04:30:23.668Z,0
2018-01-19T04:31:23.876Z,0
2018-01-19T04:32:24.301Z,0
2018-01-19T04:33:24.267Z,0
2018-01-19T04:34:24.478Z,0
2018-01-19T04:35:24.330Z,0
2018-01-19T04:36:24.449Z,0
2018-01-19T04:37:24.616Z,0
2018-01-19T04:38:24.404Z,0
2018-01-19T04:39:24.340Z,0
2018-01-19T04:40:25.075Z,0
2018-01-19T04:41:24.327Z,0
2018-01-19T04:42:25.006Z,0
2018-01-19T04:43:24.703Z,0
2018-01-19T04:44:25.114Z,0
2018-01-19T04:45:24.806Z,0
2018-01-19T04:46:25.253Z,0
2018-01-19T04:47:26.674Z,0
2018-01-19T04:48:25.050Z,0
2018-01-19T04:49:26.087Z,0
2018-01-19T04:50:25.168Z,0
2018-01-19T04:51:24.645Z,0
2018-01-19T04:52:25.592Z,0
2018-01-19T04:53:25.435Z,0
2018-01-19T04:54:25.632Z,0
2018-01-19T04:55:25.585Z,0
2018-01-19T04:56:25.204Z,0
2018-01-19T04:57:25.930Z,0
2018-01-19T04:58:25.730Z,0
2018-01-19T04:59:25.247Z,0
2018-01-19T05:00:25.300Z,0
2018-01-19T05:01:26.130Z,0
2018-01-19T05:02:26.187Z,0
2018-01-19T05:03:26.413Z,0
2018-01-19T05:04:25.843Z,0
2018-01-19T05:05:25.919Z,0
2018-01-19T05:06:25.873Z,0
2018-01-19T05:07:26.365Z,0
2018-01-19T05:08:26.053Z,0
2018-01-19T05:09:26.603Z,0
2018-01-19T05:10:27.231Z,0
2018-01-19T05:11:26.529Z,0
2018-01-19T05:12:26.449Z,0
2018-01-19T05:13:27.378Z,0
2018-01-19T05:14:27.270Z,0
2018-01-19T05:15:26.659Z,0
2018-01-19T05:16:26.854Z,0
2018-01-19T05:17:27.250Z,0
2018-01-19T05:18:26.848Z,0
2018-01-19T05:19:29.456Z,0
2018-01-19T05:20:28.750Z,0
2018-01-19T05:21:27.508Z,0
2018-01-19T05:22:27.957Z,0
2018-01-19T05:23:28.119Z,0
2018-01-19T05:24:28.028Z,0
2018-01-19T05:25:28.242Z,0
2018-01-19T05:26:29.053Z,0
2018-01-19T05:27:28.683Z,0
2018-01-19T05:28:29.391Z,0
2018-01-19T05:29:29.628Z,0
2018-01-19T05:30:28.995Z,0
2018-01-19T05:31:29.127Z,0
2018-01-19T05:32:30.138Z,0
2018-01-19T05:33:29.624Z,0
2018-01-19T05:34:29.780Z,0
2018-01-19T05:35:30.267Z,0
2018-01-19T05:36:30.709Z,0
2018-01-19T05:37:31.721Z,0
2018-01-19T05:38:30.377Z,0
2018-01-19T05:39:30.112Z,0
2018-01-19T05:40:30.288Z,0
2018-01-19T05:41:31.930Z,0
2018-01-19T05:42:32.500Z,0
2018-01-19T05:43:32.599Z,0
2018-01-19T05:44:31.023Z,0
2018-01-19T05:45:31.440Z,0
2018-01-19T05:46:31.809Z,0
2018-01-19T05:47:31.626Z,0
2018-01-19T05:48:32.283Z,0
2018-01-19T05:49:32.175Z,0
2018-01-19T05:50:32.033Z,0
2018-01-19T05:51:32.188Z,0
2018-01-19T05:52:31.872Z,0
2018-01-19T05:53:31.774Z,0
2018-01-19T05:54:32.051Z,0
2018-01-19T05:55:33.097Z,0
2018-01-19T05:56:32.664Z,0
2018-01-19T05:57:34.226Z,0
2018-01-19T05:58:32.249Z,0
2018-01-19T05:59:32.705Z,0
2018-01-19T06:00:33.370Z,0
2018-01-19T06:01:32.756Z,0
2018-01-19T06:02:33.121Z,0
2018-01-19T06:03:33.115Z,0
2018-01-19T06:04:32.481Z,0
2018-01-19T06:05:33.867Z,0
2018-01-19T06:06:33.579Z,0
2018-01-19T06:07:33.317Z,0
2018-01-19T06:08:34.996Z,0
2018-01-19T06:09:33.768Z,0
2018-01-19T06:10:33.023Z,0
2018-01-19T06:11:34.121Z,0
2018-01-19T06:12:33.628Z,0
2018-01-19T06:13:33.562Z,0
2018-01-19T06:14:33.488Z,0
2018-01-19T06:15:34.471Z,0
2018-01-19T06:16:34.312Z,0
2018-01-19T06:17:33.775Z,0
2018-01-19T06:18:33.934Z,0
2018-01-19T06:19:34.191Z,0
2018-01-19T06:20:36.120Z,0
2018-01-19T06:21:34.669Z,0
2018-01-19T06:22:35.411Z,0
2018-01-19T06:23:35.173Z,0
2018-01-19T06:24:35.590Z,0
2018-01-19T06:25:35.242Z,0
2018-01-19T06:26:35.799Z,0
2018-01-19T06:27:35.526Z,0
2018-01-19T06:28:35.362Z,0
2018-01-19T06:29:36.187Z,0
2018-01-19T06:30:36.946Z,0
2018-01-19T06:31:35.792Z,0
2018-01-19T06:32:36.384Z,0
2018-01-19T06:33:35.230Z,0
2018-01-19T06:34:35.836Z,0
2018-01-19T06:35:37.495Z,0
2018-01-19T06:36:35.627Z,0
2018-01-19T06:37:35.994Z,0
2018-01-19T06:38:36.414Z,0
2018-01-19T06:39:36.852Z,0
2018-01-19T06:40:36.753Z,0
2018-01-19T06:41:37.018Z,0
2018-01-19T06:42:37.009Z,0
2018-01-19T06:43:37.543Z,0
2018-01-19T06:44:37.595Z,0
2018-01-19T06:45:37.769Z,0
2018-01-19T06:46:37.764Z,0
2018-01-19T06:47:37.448Z,0
2018-01-19T06:48:37.980Z,0
2018-01-19T06:49:38.185Z,0
2018-01-19T06:50:37.859Z,0
2018-01-19T06:51:37.888Z,0
2018-01-19T06:52:38.614Z,0
2018-01-19T06:53:38.751Z,0
2018-01-19T06:54:38.127Z,0
2018-01-19T06:55:38.615Z,0
2018-01-19T06:56:38.804Z,0
2018-01-19T06:57:39.116Z,0
2018-01-19T06:58:39.083Z,0
2018-01-19T06:59:38.900Z,0
2018-01-19T07:00:39.604Z,0
2018-01-19T07:01:39.094Z,0
2018-01-19T07:02:39.474Z,0
2018-01-19T07:03:39.563Z,0
2018-01-19T07:04:39.486Z,0
2018-01-19T07:05:39.463Z,0
2018-01-19T07:06:40.130Z,0
2018-01-19T07:07:40.418Z,0
2018-01-19T07:08:40.098Z,5
2018-01-19T07:09:40.101Z,5
2018-01-19T07:10:40.158Z,5
2018-01-19T07:11:39.682Z,5
2018-01-19T07:12:39.855Z,5
2018-01-19T07:13:40.426Z,5
2018-01-19T07:14:39.806Z,5
2018-01-19T07:15:40.138Z,5
2018-01-19T07:16:40.703Z,5
2018-01-19T07:17:40.341Z,5
2018-01-19T07:18:40.823Z,5
2018-01-19T07:19:40.555Z,5
2018-01-19T07:20:40.795Z,5
2018-01-19T07:21:40.652Z,5
2018-01-19T07:22:40.919Z,10
2018-01-19T07:23:41.112Z,10
2018-01-19T07:24:43.615Z,10
2018-01-19T07:25:41.409Z,10
2018-01-19T07:26:41.021Z,10
2018-01-19T07:27:40.851Z,10
2018-01-19T07:28:41.342Z,10
2018-01-19T07:29:41.282Z,10
2018-01-19T07:30:41.094Z,10
2018-01-19T07:31:42.609Z,10
2018-01-19T07:32:41.427Z,10
2018-01-19T07:33:42.064Z,10
2018-01-19T07:34:42.516Z,10
2018-01-19T07:35:42.247Z,10
2018-01-19T07:36:42.930Z,10
2018-01-19T07:37:42.705Z,10
2018-01-19T07:38:43.127Z,10
2018-01-19T07:39:43.547Z,10
2018-01-19T07:40:43.360Z,10
2018-01-19T07:41:43.386Z,10
2018-01-19T07:42:43.266Z,15
2018-01-19T07:43:43.466Z,15
2018-01-19T07:44:44.006Z,15
2018-01-19T07:45:43.833Z,15
2018-01-19T07:46:43.985Z,15
2018-01-19T07:47:44.366Z,20
2018-01-19T07:48:44.036Z,20
2018-01-19T07:49:44.999Z,20
2018-01-19T07:50:44.717Z,20
2018-01-19T07:51:44.111Z,20
2018-01-19T07:52:44.647Z,25
2018-01-19T07:53:45.420Z,25
2018-01-19T07:54:45.631Z,25
2018-01-19T07:55:45.185Z,25
2018-01-19T07:56:44.828Z,20
2018-01-19T07:57:46.148Z,20
2018-01-19T07:58:46.051Z,20
2018-01-19T07:59:45.901Z,20
2018-01-19T08:00:45.842Z,25
2018-01-19T08:01:45.792Z,25
2018-01-19T08:02:47.830Z,30
2018-01-19T08:03:45.673Z,30
2018-01-19T08:04:45.609Z,30
2018-01-19T08:05:45.419Z,35
2018-01-19T08:06:47.958Z,40
2018-01-19T08:07:46.490Z,40
2018-01-19T08:08:47.308Z,40
2018-01-19T08:09:48.512Z,35
2018-01-19T08:10:46.891Z,35
2018-01-19T08:11:47.162Z,35
2018-01-19T08:12:47.439Z,35
2018-01-19T08:13:47.950Z,35
2018-01-19T08:14:47.402Z,35
2018-01-19T08:15:47.806Z,35
2018-01-19T08:16:47.394Z,35
2018-01-19T08:17:48.209Z,40
2018-01-19T08:18:47.762Z,40
2018-01-19T08:19:48.721Z,35
2018-01-19T08:20:49.885Z,35
2018-01-19T08:21:48.797Z,40
2018-01-19T08:22:49.100Z,40
2018-01-19T08:23:48.483Z,40
2018-01-19T08:24:48.931Z,35
2018-01-19T08:25:48.676Z,30
2018-01-19T08:26:48.857Z,35
2018-01-19T08:27:49.285Z,35
2018-01-19T08:28:48.811Z,40
2018-01-19T08:29:48.671Z,40
2018-01-19T08:30:48.621Z,40
2018-01-19T08:31:48.667Z,50
2018-01-19T08:32:49.254Z,45
2018-01-19T08:33:48.772Z,45
2018-01-19T08:34:48.932Z,45
2018-01-19T08:35:50.337Z,50
2018-01-19T08:36:49.143Z,40
2018-01-19T08:37:50.015Z,45
2018-01-19T08:38:49.216Z,45
2018-01-19T08:39:49.827Z,55
2018-01-19T08:40:50.349Z,50
2018-01-19T08:41:49.765Z,45
2018-01-19T08:42:50.279Z,45
2018-01-19T08:43:50.147Z,45
2018-01-19T08:44:50.286Z,45
2018-01-19T08:45:50.247Z,55
2018-01-19T08:46:50.379Z,55
2018-01-19T08:47:50.127Z,60
2018-01-19T08:48:49.848Z,60
2018-01-19T08:49:50.290Z,55
2018-01-19T08:50:50.469Z,55
2018-01-19T08:51:50.393Z,65
2018-01-19T08:52:51.243Z,65
2018-01-19T08:53:51.087Z,65
2018-01-19T08:54:51.350Z,65
2018-01-19T08:55:51.474Z,65
2018-01-19T08:56:51.765Z,55
2018-01-19T08:57:50.875Z,55
2018-01-19T08:58:51.128Z,55
2018-01-19T08:59:50.904Z,55
2018-01-19T09:00:52.091Z,60
2018-01-19T09:01:51.473Z,65
2018-01-19T09:02:51.195Z,70
2018-01-19T09:03:51.363Z,70
2018-01-19T09:04:52.361Z,75
2018-01-19T09:05:52.275Z,70
2018-01-19T09:06:52.348Z,75
2018-01-19T09:07:52.229Z,80
2018-01-19T09:08:52.100Z,85
2018-01-19T09:09:51.987Z,90
2018-01-19T09:10:52.009Z,95
2018-01-19T09:11:51.938Z,100
2018-01-19T09:12:52.067Z,105
2018-01-19T09:13:52.536Z,105
2018-01-19T09:14:52.535Z,100
2018-01-19T09:15:52.731Z,90
2018-01-19T09:16:52.266Z,80
2018-01-19T09:17:53.036Z,70
2018-01-19T09:18:52.503Z,85
2018-01-19T09:19:52.492Z,100
2018-01-19T09:20:53.414Z,95
2018-01-19T09:21:53.014Z,80
2018-01-19T09:22:53.557Z,80
2018-01-19T09:23:55.439Z,80
2018-01-19T09:24:55.484Z,85
2018-01-19T09:25:53.794Z,80
2018-01-19T09:26:52.759Z,90
2018-01-19T09:27:53.626Z,95
2018-01-19T09:28:53.550Z,80
2018-01-19T09:29:54.473Z,65
2018-01-19T09:30:54.644Z,75
2018-01-19T09:31:55.146Z,95
2018-01-19T09:32:54.895Z,90
2018-01-19T09:33:54.030Z,80
2018-01-19T09:34:54.763Z,85
2018-01-19T09:35:54.721Z,110
2018-01-19T09:36:57.194Z,95
2018-01-19T09:37:56.107Z,90
2018-01-19T09:38:55.652Z,90
2018-01-19T09:39:55.302Z,80
2018-01-19T09:40:55.321Z,85
2018-01-19T09:41:56.125Z,85
2018-01-19T09:42:55.850Z,80
2018-01-19T09:43:55.979Z,75
2018-01-19T09:44:56.336Z,80
2018-01-19T09:45:55.389Z,85
2018-01-19T09:46:55.758Z,80
2018-01-19T09:47:56.249Z,85
2018-01-19T09:48:56.390Z,105
2018-01-19T09:49:55.851Z,95
2018-01-19T09:50:56.361Z,90
2018-01-19T09:51:56.659Z,105
2018-01-19T09:52:56.925Z,90
2018-01-19T09:53:56.704Z,85
2018-01-19T09:54:56.753Z,80
2018-01-19T09:55:56.731Z,80
2018-01-19T09:56:56.583Z,65
2018-01-19T09:57:57.936Z,65
2018-01-19T09:58:56.787Z,60
2018-01-19T09:59:57.074Z,55
2018-01-19T10:00:56.842Z,60
2018-01-19T10:01:56.866Z,55
2018-01-19T10:02:56.744Z,60
2018-01-19T10:03:56.537Z,70
2018-01-19T10:04:57.175Z,65
2018-01-19T10:05:57.307Z,65
2018-01-19T10:06:58.006Z,70
2018-01-19T10:07:57.839Z,80
2018-01-19T10:08:57.440Z,85
2018-01-19T10:09:57.743Z,75
2018-01-19T10:10:58.107Z,70
2018-01-19T10:11:58.510Z,70
2018-01-19T10:12:58.399Z,75
2018-01-19T10:13:59.030Z,75
2018-01-19T10:14:59.257Z,75
2018-01-19T10:15:59.547Z,85
2018-01-19T10:16:59.999Z,95
2018-01-19T10:17:59.480Z,95
2018-01-19T10:19:00.073Z,100
2018-01-19T10:19:59.654Z,95
2018-01-19T10:21:00.634Z,90
2018-01-19T10:22:00.350Z,85
2018-01-19T10:23:00.560Z,85
2018-01-19T10:23:59.782Z,95
2018-01-19T10:25:00.320Z,100
2018-01-19T10:26:00.751Z,85
2018-01-19T10:27:00.536Z,80
2018-01-19T10:28:00.856Z,85
2018-01-19T10:29:02.180Z,85
2018-01-19T10:30:02.234Z,85
2018-01-19T10:31:03.401Z,80
2018-01-19T10:32:03.177Z,80
2018-01-19T10:33:02.386Z,85
2018-01-19T10:34:02.121Z,75
2018-01-19T10:35:02.404Z,70
2018-01-19T10:36:03.004Z,70
2018-01-19T10:37:02.558Z,65
2018-01-19T10:38:02.199Z,75
2018-01-19T10:39:01.660Z,85
2018-01-19T10:40:01.793Z,75
2018-01-19T10:41:02.499Z,75
2018-01-19T10:42:02.506Z,70
2018-01-19T10:43:02.154Z,65
2018-01-19T10:44:02.572Z,70
2018-01-19T10:45:02.692Z,90
2018-01-19T10:46:02.832Z,110
2018-01-19T10:47:02.724Z,115
2018-01-19T10:48:03.191Z,130
2018-01-19T10:49:04.007Z,140
2018-01-19T10:50:03.677Z,145
2018-01-19T10:51:02.287Z,140
2018-01-19T10:52:02.893Z,130
2018-01-19T10:53:02.450Z,105
2018-01-19T10:54:02.652Z,110
2018-01-19T10:55:02.711Z,110
2018-01-19T10:56:02.349Z,115
2018-01-19T10:57:02.886Z,110
2018-01-19T10:58:02.668Z,110
2018-01-19T10:59:02.961Z,100
2018-01-19T11:01:03.382Z,85
2018-01-19T11:02:03.668Z,90
2018-01-19T11:03:03.507Z,80
2018-01-19T11:04:04.352Z,80
2018-01-19T11:05:03.657Z,75
2018-01-19T11:06:03.714Z,90
2018-01-19T11:07:03.685Z,105
2018-01-19T11:08:04.383Z,105
2018-01-19T11:09:04.290Z,100
2018-01-19T11:10:04.241Z,115
2018-01-19T11:11:04.575Z,115
2018-01-19T11:12:04.268Z,110
2018-01-19T11:13:04.701Z,85
2018-01-19T11:14:04.808Z,85
2018-01-19T11:15:05.146Z,90
2018-01-19T11:16:05.906Z,95
2018-01-19T11:17:06.541Z,85
2018-01-19T11:18:06.418Z,80
2018-01-19T11:19:06.429Z,80
2018-01-19T11:20:06.740Z,80
2018-01-19T11:21:06.861Z,95
2018-01-19T11:22:07.145Z,120
2018-01-19T11:23:07.061Z,110
2018-01-19T11:24:07.566Z,100
2018-01-19T11:25:08.386Z,115
2018-01-19T11:26:07.215Z,115
2018-01-19T11:27:07.876Z,120
2018-01-19T11:28:08.310Z,125
2018-01-19T11:29:08.275Z,125
2018-01-19T11:30:08.405Z,135
2018-01-19T11:31:08.844Z,145
2018-01-19T11:32:09.193Z,155
2018-01-19T11:33:09.879Z,160
2018-01-19T11:34:10.085Z,155
2018-01-19T11:35:09.448Z,155
2018-01-19T11:36:09.700Z,145
2018-01-19T11:37:10.108Z,145
2018-01-19T11:38:09.972Z,135
2018-01-19T11:39:10.303Z,130
2018-01-19T11:40:11.285Z,140
2018-01-19T11:41:10.928Z,145
2018-01-19T11:42:11.157Z,150
2018-01-19T11:43:10.967Z,145
2018-01-19T11:44:10.736Z,135
2018-01-19T11:45:10.968Z,105
2018-01-19T11:46:12.584Z,95
2018-01-19T11:47:11.269Z,90
2018-01-19T11:48:10.714Z,80
2018-01-19T11:49:11.131Z,80
2018-01-19T11:50:11.049Z,75
2018-01-19T11:51:10.955Z,75
2018-01-19T11:52:11.988Z,90
2018-01-19T11:53:11.980Z,110
2018-01-19T11:54:11.090Z,110
2018-01-19T11:55:12.091Z,115
2018-01-19T11:56:11.240Z,115
2018-01-19T11:57:10.975Z,95
2018-01-19T11:58:11.136Z,90
2018-01-19T11:59:10.620Z,85
2018-01-19T12:00:25.845Z,95
2018-01-19T12:01:25.796Z,105
2018-01-19T12:02:25.807Z,90
2018-01-19T12:03:26.389Z,80
2018-01-19T12:04:25.681Z,95
2018-01-19T12:05:26.004Z,95
2018-01-19T12:06:26.004Z,90
2018-01-19T12:07:26.635Z,100
2018-01-19T12:08:27.158Z,115
2018-01-19T12:09:26.612Z,105
2018-01-19T12:10:27.196Z,95
2018-01-19T12:11:27.273Z,100
2018-01-19T12:12:28.643Z,115
2018-01-19T12:13:27.790Z,115
2018-01-19T12:14:27.546Z,120
2018-01-19T12:15:27.705Z,130
2018-01-19T12:16:27.450Z,130
2018-01-19T12:17:26.957Z,110
2018-01-19T12:18:26.794Z,105
2018-01-19T12:19:26.958Z,95
2018-01-19T12:20:26.863Z,80
2018-01-19T12:21:27.455Z,75
2018-01-19T12:22:27.939Z,75
2018-01-19T12:23:27.854Z,85
2018-01-19T12:24:27.750Z,85
2018-01-19T12:25:28.517Z,80
2018-01-19T12:26:28.336Z,70
2018-01-19T12:27:28.590Z,65
2018-01-19T12:28:29.170Z,70
2018-01-19T12:29:29.015Z,65
2018-01-19T12:30:29.260Z,65
2018-01-19T12:31:29.357Z,75
2018-01-19T12:32:29.473Z,85
2018-01-19T12:33:29.389Z,100
2018-01-19T12:34:29.643Z,100
2018-01-19T12:35:29.947Z,85
2018-01-19T12:36:30.075Z,80
2018-01-19T12:37:30.157Z,85
2018-01-19T12:38:30.302Z,95
2018-01-19T12:39:30.577Z,110
2018-01-19T12:40:30.774Z,115
2018-01-19T12:41:31.157Z,100
2018-01-19T12:42:31.805Z,95
2018-01-19T12:43:31.351Z,90
2018-01-19T12:44:32.048Z,95
2018-01-19T12:45:31.474Z,95
2018-01-19T12:46:32.097Z,95
2018-01-19T12:47:32.096Z,80
2018-01-19T12:48:32.301Z,80
2018-01-19T12:49:32.246Z,75
2018-01-19T12:50:32.682Z,70
2018-01-19T12:51:33.777Z,80
2018-01-19T12:52:33.047Z,75
2018-01-19T12:53:33.292Z,60
2018-01-19T12:54:33.572Z,60
2018-01-19T12:55:33.249Z,75
2018-01-19T12:56:33.298Z,80
2018-01-19T12:57:32.904Z,80
2018-01-19T12:58:33.567Z,70
2018-01-19T12:59:33.449Z,75
2018-01-19T13:00:33.966Z,75
2018-01-19T13:01:33.963Z,70
2018-01-19T13:02:34.122Z,65
2018-01-19T13:03:34.601Z,80
2018-01-19T13:04:34.665Z,70
2018-01-19T13:05:34.795Z,50
2018-01-19T13:06:34.486Z,60
2018-01-19T13:07:34.916Z,75
2018-01-19T13:08:34.461Z,70
2018-01-19T13:09:34.462Z,65
2018-01-19T13:10:35.900Z,60
2018-01-19T13:11:34.966Z,60
2018-01-19T13:12:35.254Z,80
2018-01-19T13:13:35.629Z,85
2018-01-19T13:14:35.737Z,80
2018-01-19T13:15:35.910Z,75
2018-01-19T13:16:35.682Z,70
2018-01-19T13:17:36.532Z,65
2018-01-19T13:18:36.887Z,70
2018-01-19T13:19:36.663Z,75
2018-01-19T13:20:37.102Z,80
2018-01-19T13:21:37.472Z,80
2018-01-19T13:22:37.571Z,85
2018-01-19T13:23:37.630Z,90
2018-01-19T13:24:38.111Z,90
2018-01-19T13:25:38.563Z,85
2018-01-19T13:26:39.484Z,90
2018-01-19T13:27:39.512Z,80
2018-01-19T13:28:38.985Z,75
2018-01-19T13:29:38.815Z,70
2018-01-19T13:30:40.154Z,65
2018-01-19T13:31:39.350Z,75
2018-01-19T13:32:39.802Z,90
2018-01-19T13:33:40.628Z,90
2018-01-19T13:34:39.626Z,75
2018-01-19T13:35:40.028Z,70
2018-01-19T13:36:39.128Z,60
2018-01-19T13:37:39.746Z,50
2018-01-19T13:38:39.778Z,55
2018-01-19T13:39:39.833Z,60
2018-01-19T13:40:39.616Z,70
2018-01-19T13:41:40.108Z,65
2018-01-19T13:42:39.425Z,65
2018-01-19T13:43:40.764Z,55
2018-01-19T13:44:40.149Z,50
2018-01-19T13:45:39.965Z,45
2018-01-19T13:46:40.094Z,40
2018-01-19T13:47:40.701Z,35
2018-01-19T13:48:40.235Z,30
2018-01-19T13:49:40.419Z,30
2018-01-19T13:50:39.724Z,25
2018-01-19T13:51:40.294Z,20
2018-01-19T13:52:41.219Z,15
2018-01-19T13:53:41.681Z,15
2018-01-19T13:54:41.279Z,20
2018-01-19T13:55:40.470Z,30
2018-01-19T13:56:41.635Z,40
2018-01-19T13:57:41.402Z,45
2018-01-19T13:58:40.610Z,45
2018-01-19T13:59:40.216Z,50
2018-01-19T14:00:40.301Z,50
2018-01-19T14:01:39.024Z,55
2018-01-19T14:02:40.293Z,60
2018-01-19T14:03:40.162Z,60
2018-01-19T14:04:40.015Z,60
2018-01-19T14:05:40.423Z,65
2018-01-19T14:06:40.012Z,65
2018-01-19T14:07:39.800Z,65
2018-01-19T14:08:40.093Z,65
2018-01-19T14:09:40.335Z,70
2018-01-19T14:10:40.904Z,70
2018-01-19T14:11:39.887Z,65
2018-01-19T14:12:40.411Z,65
2018-01-19T14:13:40.403Z,60
2018-01-19T14:14:40.781Z,55
2018-01-19T14:15:41.333Z,55
2018-01-19T14:16:40.274Z,55
2018-01-19T14:17:40.261Z,55
2018-01-19T14:18:41.465Z,50
2018-01-19T14:19:40.369Z,50
2018-01-19T14:20:40.066Z,45
2018-01-19T14:21:40.559Z,45
2018-01-19T14:22:40.411Z,40
2018-01-19T14:23:39.870Z,40
2018-01-19T14:24:40.321Z,40
2018-01-19T14:25:41.433Z,40
2018-01-19T14:26:40.735Z,40
2018-01-19T14:27:41.366Z,35
2018-01-19T14:28:41.743Z,35
2018-01-19T14:29:42.490Z,30
2018-01-19T14:30:41.445Z,30
2018-01-19T14:31:41.309Z,25